AirNav   Everest Fuels
 
 1359 users online  

49T Dallas CBD Vertiport
Dallas, Texas, USA

GOING TO DALLAS?


FAA INFORMATION EFFECTIVE 28 MARCH 2019

Location

FAA Identifier: 49T
Lat/Long: 32-46-24.0000N / 096-48-01.0000W
32-46.400000N / 096-48.016667W
32.7733333 / -96.8002778
(estimated)
Elevation: 480 ft. / 146 m (estimated)
Variation: 06E (1990)
Time zone: UTC -5 (UTC -6 during Standard Time)
Zip code: 75202

Heliport Operations

Heliport use: Open to the public
Activation date: 01/1994
Control tower: no
ARTCC: FORT WORTH CENTER
FSS: FORT WORTH FLIGHT SERVICE STATION
NOTAMs facility: FTW (NOTAM-D service available)
Attendance: UNATNDD
Wind indicator: lighted
Segmented circle: no
Lights: ACTVT PERIMETER LGTS - CTAF.
Beacon: white-green-yellow (heliport)
Operates sunset to sunrise.

Heliport Communications

CTAF/UNICOM: 123.05
WX AWOS-3: 135.425 (214-670-1243)
WX ASOS at DAL (5 nm NW): PHONE 214-353-1551
WX ASOS at RBD (7 nm SW): PHONE 214-330-5317
WX AWOS-3 at ADS (12 nm N): PHONE 972-386-4855
WX AWOS-3 at LNC (12 nm S): 118.975 (972-227-0471)
WX AWOS-3P at GPM (13 nm W): 118.475 (972-606-1433)
WX AWOS-3 at HQZ (14 nm E): 118.175 (972-222-7631)
WX ASOS at DFW (14 nm NW): PHONE 972-615-2608
WX ASOS at GKY (16 nm SW): 127.375 (817-557-0251)
WX AWOS-3 at JWY (20 nm S): 119.575 (972-937-4747)

Nearby radio navigation aids

VOR radial/distance  VOR name  Freq  Var
CVEr137/8.8COWBOY VOR/DME116.2006E
TTTr109/13.4MAVERICK VOR/DME113.1006E
FUZr104/20.3RANGER VORTAC115.7006E

 
NDB name  Hdg/Dist  Freq  Var  ID
MESQUITE258/13.824803EPQF .--. --.- ..-.
TRAVIS266/27.826006EAVZ .- ...- --..
CADDO MILLS234/32.131606EMII -- .. ..

Heliport Services

Parking: tiedowns

Runway Information

Helipad H1

Dimensions: 60 x 60 ft. / 18 x 18 m
Surface: concrete, in excellent condition
Weight bearing capacity: 
Single wheel: 43.0
Runway edge lights: PERI
Operational restrictions: ROOFTOP. INGRESS/EGRESS SW.
Traffic pattern: leftleft
Markings: basic, in good condition

Helipad H2

Dimensions: 60 x 60 ft. / 18 x 18 m
Surface: concrete, in excellent condition
Weight bearing capacity: 
Single wheel: 43.0
Runway edge lights: PERI
PERIMETER LGTS.
Operational restrictions: ROOFTOP. INGRESS/EGRESS SE.
Traffic pattern: leftleft
Markings: basic, in good condition

Heliport Ownership and Management from official FAA records

Ownership: Publicly-owned
Owner: CITY OF DALLAS
801 S LAMAR
DALLAS, TX 75202
Phone 214-670-4338
DEPT OF AVIATION.
Manager: DARRELL PHILLIPS
5303 CHALLENGER DRIVE
DALLAS, TX 75237
Phone (214) 671-1296

Heliport Operational Statistics

Aircraft operations: avg 61/month *
100% transient general aviation
* for 12-month period ending 31 December 2015

Additional Remarks

A52-H1 H1 & H2 900 FT BLDGS NW; 500 FT BLDGS NE 1.2 MILE DSTC.
FOR CD CTC REGIONAL APCH AT 972-615-2799.

Instrument Procedures

There are no published instrument procedures at 49T.

Some nearby airports with instrument procedures:

KDAL - Dallas Love Field Airport (5 nm NW)
KRBD - Dallas Executive Airport (7 nm SW)
KADS - Addison Airport (12 nm N)
KLNC - Lancaster Regional Airport (12 nm S)
KGPM - Grand Prairie Municipal Airport (13 nm W)
KHQZ - Mesquite Metro Airport (14 nm E)
KDFW - Dallas-Fort Worth International Airport (14 nm NW)
KGKY - Arlington Municipal Airport (16 nm SW)
KJWY - Mid-Way Regional Airport (20 nm S)
 
Loc | Ops | Rwys | IFR | FBO | Links
Com | Nav | Svcs | Stats | Notes
Area around 49T (Dallas CBD Vertiport)
 
Road maps at: MapQuest Bing Google
 
Aerial photo
WARNING: Photo may not be current or correct
Aerial photo of 49T (Dallas CBD Vertiport)
Photo by Bryant Sivess
Photo taken 10-Oct-2013
looking north.

Do you have a better or more recent aerial photo of Dallas CBD Vertiport that you would like to share? If so, please send us your photo.

 
Sectional chart

 
Airport distance calculator
Flying to Dallas CBD Vertiport? Find the distance to fly.

From to 49T

Sunrise and sunset
Times for 18-Apr-2019
 Local
(UTC-5)
 Zulu
(UTC)
Morning civil twilight06:3011:30
Sunrise06:5511:55
Sunset19:5800:58
Evening civil twilight20:2401:24

Current date and time
Zulu (UTC)  18-Apr-2019 17:29:08
Local (UTC-5)  18-Apr-2019 12:29:08
 
METAR
KDAL 
5nm NW 
181653Z 34012G20KT 9SM -TSRA FEW010 SCT015CB OVC025 16/13 A2980 RMK AO2 SLP087 VIS SE 5 OCNL LTGIC TS SE MOV SE P0014 T01560133 $
KRBD 
6nm SW 
181721Z 34016G22KT 1 1/2SM +RA BR FEW010 BKN025 OVC032 14/13 A2981 RMK AO2 PK WND 33028/1656 LTG DSNT E P0006 T01440133
KADS 
12nm N 
181652Z 35013G19KT 10SM BKN013 BKN017 OVC024 15/13 A2981
KLNC 
12nm S 
181715Z AUTO 36016KT 7SM -DZ SCT012 BKN033 OVC100 17/15 A2981 RMK AO2 LTG DSNT NE T01700151
KDFW 
13nm NW 
181653Z 35014KT 10SM FEW012 BKN030 OVC037 16/13 A2980 RMK AO2 PK WND 33035/1608 LTG DSNT SE RAE20 SLP084 P0000 T01610133 $
KGPM 
13nm W 
181650Z 35012KT 10SM SCT008 BKN025 18/14 A2983
KHQZ 
14nm E 
181650Z 33015G21KT 2SM TSRA BKN008 OVC016 17/16 A2979
KGKY 
16nm SW 
181707Z 34018KT 10SM SCT027 OVC035 17/13 A2981 RMK AO2 LTG DSNT E T01670133
KJWY 
20nm S 
181715Z AUTO 34017G28KT 10SM BKN014 BKN019 OVC026 16/15 A2981 RMK AO2 P0001 T01620146
TAF
KDAL 
5nm NW 
181434Z 1815/1912 VRB06KT P6SM VCSH SCT015 BKN025 TEMPO 1815/1816 33007KT -RA BKN015 FM181600 35018KT P6SM -SHRA VCTS BKN018CB BKN100 FM181800 34022G32KT P6SM BKN050 FM190200 34008KT P6SM FEW150
KDFW 
13nm NW 
181434Z 1815/1918 33007KT P6SM VCSH SCT015 BKN025 TEMPO 1815/1816 -RA BKN015 FM181600 35018KT P6SM -SHRA VCTS BKN018CB BKN100 FM181800 34022G32KT P6SM BKN050 FM190200 34008KT P6SM FEW150 FM191300 35016KT P6SM FEW250
KGKY 
16nm SW 
181246Z 1813/1912 33007KT P6SM SCT030 OVC150 TEMPO 1813/1816 BKN015 FM181600 35018KT P6SM -SHRA VCTS BKN018CB BKN100 FM181800 34022G32KT P6SM BKN050 FM190200 34008KT P6SM FEW150
NOTAMs
Click for the latest NOTAMs
NOTAMs are issued by the DoD/FAA and will open in a separate window not controlled by AirNav.

 

 
 

Would you like to see your business listed on this page?

 If your business provides an interesting product or service to pilots, flight crews, aircraft, or users of the Dallas CBD Vertiport, you should consider listing it here.  To start the listing process, click on the button below
 
Add a business
 

Other Pages about Dallas CBD Vertiport

www.dallascityhall.com/...
 
Update a link
 
Copyright © AirNav, LLC. All rights reserved. Privacy Policy  Contact